sensor_id;sensor_type;location;lat;lon;timestamp;P1;durP1;ratioP1;P2;durP2;ratioP2
52188;SDS011;38162;45.926;13.608;2023-07-20T00:01:15;6.93;;;3.05;;
52188;SDS011;38162;45.926;13.608;2023-07-20T00:03:41;8.85;;;2.90;;
52188;SDS011;38162;45.926;13.608;2023-07-20T00:06:07;8.30;;;2.70;;
52188;SDS011;38162;45.926;13.608;2023-07-20T00:08:33;7.63;;;2.70;;
52188;SDS011;38162;45.926;13.608;2023-07-20T00:10:59;7.28;;;2.80;;
52188;SDS011;38162;45.926;13.608;2023-07-20T00:13:24;8.52;;;3.10;;
52188;SDS011;38162;45.926;13.608;2023-07-20T00:15:51;7.93;;;3.45;;
52188;SDS011;38162;45.926;13.608;2023-07-20T00:18:17;9.60;;;3.00;;
52188;SDS011;38162;45.926;13.608;2023-07-20T00:20:46;6.90;;;2.78;;
52188;SDS011;38162;45.926;13.608;2023-07-20T00:23:12;9.55;;;3.45;;
52188;SDS011;38162;45.926;13.608;2023-07-20T00:25:38;7.18;;;2.92;;
52188;SDS011;38162;45.926;13.608;2023-07-20T00:28:04;10.52;;;3.00;;
52188;SDS011;38162;45.926;13.608;2023-07-20T00:30:29;6.35;;;2.75;;
52188;SDS011;38162;45.926;13.608;2023-07-20T00:32:55;8.68;;;3.15;;
52188;SDS011;38162;45.926;13.608;2023-07-20T00:35:21;6.55;;;2.80;;
52188;SDS011;38162;45.926;13.608;2023-07-20T00:37:47;8.98;;;3.25;;
52188;SDS011;38162;45.926;13.608;2023-07-20T00:40:12;11.20;;;3.13;;
52188;SDS011;38162;45.926;13.608;2023-07-20T00:42:38;6.43;;;3.10;;
52188;SDS011;38162;45.926;13.608;2023-07-20T00:45:04;5.38;;;3.15;;
52188;SDS011;38162;45.926;13.608;2023-07-20T00:47:30;6.63;;;2.55;;
52188;SDS011;38162;45.926;13.608;2023-07-20T00:49:57;7.40;;;3.10;;
52188;SDS011;38162;45.926;13.608;2023-07-20T00:52:23;14.02;;;3.15;;
52188;SDS011;38162;45.926;13.608;2023-07-20T00:54:52;6.75;;;2.85;;
52188;SDS011;38162;45.926;13.608;2023-07-20T00:57:21;12.57;;;3.08;;
52188;SDS011;38162;45.926;13.608;2023-07-20T00:59:49;8.00;;;3.13;;
52188;SDS011;38162;45.926;13.608;2023-07-20T01:02:14;7.68;;;2.70;;
52188;SDS011;38162;45.926;13.608;2023-07-20T01:04:40;9.68;;;3.50;;
52188;SDS011;38162;45.926;13.608;2023-07-20T01:09:44;8.25;;;3.10;;
52188;SDS011;38162;45.926;13.608;2023-07-20T01:12:27;7.55;;;3.10;;
52188;SDS011;38162;45.926;13.608;2023-07-20T01:15:01;8.75;;;3.10;;
52188;SDS011;38162;45.926;13.608;2023-07-20T01:17:27;9.90;;;3.00;;
52188;SDS011;38162;45.926;13.608;2023-07-20T01:19:53;7.65;;;3.00;;
52188;SDS011;38162;45.926;13.608;2023-07-20T01:33:00;6.97;;;3.17;;
52188;SDS011;38162;45.926;13.608;2023-07-20T01:35:28;9.98;;;3.28;;
52188;SDS011;38162;45.926;13.608;2023-07-20T01:37:55;7.35;;;3.22;;
52188;SDS011;38162;45.926;13.608;2023-07-20T01:40:23;10.27;;;3.88;;
52188;SDS011;38162;45.926;13.608;2023-07-20T01:42:50;7.88;;;3.05;;
52188;SDS011;38162;45.926;13.608;2023-07-20T01:45:17;10.20;;;3.20;;
52188;SDS011;38162;45.926;13.608;2023-07-20T01:47:43;7.93;;;3.30;;
52188;SDS011;38162;45.926;13.608;2023-07-20T01:50:09;6.93;;;3.00;;
52188;SDS011;38162;45.926;13.608;2023-07-20T01:52:35;6.78;;;2.90;;
52188;SDS011;38162;45.926;13.608;2023-07-20T01:55:01;6.90;;;3.30;;
52188;SDS011;38162;45.926;13.608;2023-07-20T01:57:27;8.55;;;3.20;;
52188;SDS011;38162;45.926;13.608;2023-07-20T01:59:52;7.97;;;3.08;;
52188;SDS011;38162;45.926;13.608;2023-07-20T02:02:18;5.97;;;3.38;;
52188;SDS011;38162;45.926;13.608;2023-07-20T02:04:45;9.73;;;3.00;;
52188;SDS011;38162;45.926;13.608;2023-07-20T02:07:11;5.78;;;3.05;;
52188;SDS011;38162;45.926;13.608;2023-07-20T02:09:37;8.32;;;3.08;;
52188;SDS011;38162;45.926;13.608;2023-07-20T02:12:03;6.47;;;3.50;;
52188;SDS011;38162;45.926;13.608;2023-07-20T02:14:28;7.45;;;2.90;;
52188;SDS011;38162;45.926;13.608;2023-07-20T02:16:54;7.15;;;3.10;;
52188;SDS011;38162;45.926;13.608;2023-07-20T02:19:24;9.43;;;3.00;;
52188;SDS011;38162;45.926;13.608;2023-07-20T02:21:51;8.23;;;3.22;;
52188;SDS011;38162;45.926;13.608;2023-07-20T02:24:18;5.72;;;3.08;;
52188;SDS011;38162;45.926;13.608;2023-07-20T02:26:44;6.25;;;3.30;;
52188;SDS011;38162;45.926;13.608;2023-07-20T02:29:10;3.85;;;2.55;;
52188;SDS011;38162;45.926;13.608;2023-07-20T02:31:37;8.35;;;2.88;;
52188;SDS011;38162;45.926;13.608;2023-07-20T02:34:05;6.78;;;2.67;;
52188;SDS011;38162;45.926;13.608;2023-07-20T02:36:31;8.48;;;2.95;;
52188;SDS011;38162;45.926;13.608;2023-07-20T02:39:00;8.63;;;2.97;;
52188;SDS011;38162;45.926;13.608;2023-07-20T02:41:27;7.50;;;3.45;;
52188;SDS011;38162;45.926;13.608;2023-07-20T02:43:53;6.15;;;2.90;;
52188;SDS011;38162;45.926;13.608;2023-07-20T02:46:19;7.18;;;2.60;;
52188;SDS011;38162;45.926;13.608;2023-07-20T02:48:45;8.85;;;3.53;;
52188;SDS011;38162;45.926;13.608;2023-07-20T02:51:10;11.82;;;3.13;;
52188;SDS011;38162;45.926;13.608;2023-07-20T02:53:37;9.00;;;2.88;;
52188;SDS011;38162;45.926;13.608;2023-07-20T02:56:03;4.50;;;2.85;;
52188;SDS011;38162;45.926;13.608;2023-07-20T02:58:29;8.57;;;3.03;;
52188;SDS011;38162;45.926;13.608;2023-07-20T03:00:54;9.80;;;3.20;;
52188;SDS011;38162;45.926;13.608;2023-07-20T03:03:20;11.23;;;3.40;;
52188;SDS011;38162;45.926;13.608;2023-07-20T03:05:46;8.75;;;3.30;;
52188;SDS011;38162;45.926;13.608;2023-07-20T03:08:12;5.85;;;2.92;;
52188;SDS011;38162;45.926;13.608;2023-07-20T03:10:38;8.63;;;3.45;;
52188;SDS011;38162;45.926;13.608;2023-07-20T03:13:05;5.40;;;2.95;;
52188;SDS011;38162;45.926;13.608;2023-07-20T03:15:31;8.10;;;3.08;;
52188;SDS011;38162;45.926;13.608;2023-07-20T03:17:57;10.15;;;3.15;;
52188;SDS011;38162;45.926;13.608;2023-07-20T03:20:23;7.68;;;3.00;;
52188;SDS011;38162;45.926;13.608;2023-07-20T03:22:49;11.98;;;2.85;;
52188;SDS011;38162;45.926;13.608;2023-07-20T03:25:15;9.27;;;3.42;;
52188;SDS011;38162;45.926;13.608;2023-07-20T03:27:42;8.93;;;3.28;;
52188;SDS011;38162;45.926;13.608;2023-07-20T03:30:08;11.20;;;4.00;;
52188;SDS011;38162;45.926;13.608;2023-07-20T03:32:35;9.80;;;3.20;;
52188;SDS011;38162;45.926;13.608;2023-07-20T03:35:01;10.25;;;3.50;;
52188;SDS011;38162;45.926;13.608;2023-07-20T03:37:27;8.60;;;3.17;;
52188;SDS011;38162;45.926;13.608;2023-07-20T03:39:53;6.85;;;3.47;;
52188;SDS011;38162;45.926;13.608;2023-07-20T03:42:18;8.18;;;3.55;;
52188;SDS011;38162;45.926;13.608;2023-07-20T03:44:44;11.32;;;3.97;;
52188;SDS011;38162;45.926;13.608;2023-07-20T03:47:10;11.95;;;3.65;;
52188;SDS011;38162;45.926;13.608;2023-07-20T03:49:36;9.32;;;3.53;;
52188;SDS011;38162;45.926;13.608;2023-07-20T03:52:01;8.02;;;3.70;;
52188;SDS011;38162;45.926;13.608;2023-07-20T03:54:30;11.43;;;3.50;;
52188;SDS011;38162;45.926;13.608;2023-07-20T03:56:56;9.38;;;3.60;;
52188;SDS011;38162;45.926;13.608;2023-07-20T03:59:22;14.30;;;3.33;;
52188;SDS011;38162;45.926;13.608;2023-07-20T04:01:47;8.80;;;3.80;;
52188;SDS011;38162;45.926;13.608;2023-07-20T04:04:15;15.32;;;4.25;;
52188;SDS011;38162;45.926;13.608;2023-07-20T04:06:41;6.15;;;3.03;;
52188;SDS011;38162;45.926;13.608;2023-07-20T04:09:09;9.18;;;3.10;;
52188;SDS011;38162;45.926;13.608;2023-07-20T04:11:36;9.93;;;3.67;;
52188;SDS011;38162;45.926;13.608;2023-07-20T04:14:02;9.23;;;3.03;;
52188;SDS011;38162;45.926;13.608;2023-07-20T04:16:28;7.95;;;3.03;;
52188;SDS011;38162;45.926;13.608;2023-07-20T04:18:56;8.85;;;3.40;;
52188;SDS011;38162;45.926;13.608;2023-07-20T04:21:23;8.43;;;3.30;;
52188;SDS011;38162;45.926;13.608;2023-07-20T04:23:51;8.50;;;3.70;;
52188;SDS011;38162;45.926;13.608;2023-07-20T04:26:16;12.00;;;3.53;;
52188;SDS011;38162;45.926;13.608;2023-07-20T04:28:42;9.90;;;3.17;;
52188;SDS011;38162;45.926;13.608;2023-07-20T04:31:14;13.98;;;3.55;;
52188;SDS011;38162;45.926;13.608;2023-07-20T04:33:41;9.48;;;3.60;;
52188;SDS011;38162;45.926;13.608;2023-07-20T04:36:07;9.07;;;3.25;;
52188;SDS011;38162;45.926;13.608;2023-07-20T04:38:34;8.65;;;3.38;;
52188;SDS011;38162;45.926;13.608;2023-07-20T04:41:00;8.27;;;3.10;;
52188;SDS011;38162;45.926;13.608;2023-07-20T04:43:25;8.63;;;3.25;;
52188;SDS011;38162;45.926;13.608;2023-07-20T04:45:52;5.72;;;3.65;;
52188;SDS011;38162;45.926;13.608;2023-07-20T04:48:18;11.82;;;3.25;;
52188;SDS011;38162;45.926;13.608;2023-07-20T04:50:44;9.00;;;3.22;;
52188;SDS011;38162;45.926;13.608;2023-07-20T04:53:11;8.50;;;3.40;;
52188;SDS011;38162;45.926;13.608;2023-07-20T04:55:40;10.18;;;3.30;;
52188;SDS011;38162;45.926;13.608;2023-07-20T04:58:15;8.98;;;3.00;;
52188;SDS011;38162;45.926;13.608;2023-07-20T05:00:42;7.75;;;2.80;;
52188;SDS011;38162;45.926;13.608;2023-07-20T05:03:07;6.13;;;3.08;;
52188;SDS011;38162;45.926;13.608;2023-07-20T05:05:33;5.97;;;3.08;;
52188;SDS011;38162;45.926;13.608;2023-07-20T05:07:59;5.60;;;2.85;;
52188;SDS011;38162;45.926;13.608;2023-07-20T05:10:24;7.15;;;3.08;;
52188;SDS011;38162;45.926;13.608;2023-07-20T05:12:50;9.50;;;3.22;;
52188;SDS011;38162;45.926;13.608;2023-07-20T05:15:16;6.55;;;3.08;;
52188;SDS011;38162;45.926;13.608;2023-07-20T05:17:42;7.47;;;2.90;;
52188;SDS011;38162;45.926;13.608;2023-07-20T05:20:08;6.45;;;2.85;;
52188;SDS011;38162;45.926;13.608;2023-07-20T05:22:38;5.93;;;3.30;;
52188;SDS011;38162;45.926;13.608;2023-07-20T05:25:07;10.40;;;3.40;;
52188;SDS011;38162;45.926;13.608;2023-07-20T05:27:33;8.43;;;3.08;;
52188;SDS011;38162;45.926;13.608;2023-07-20T05:30:01;7.93;;;2.72;;
52188;SDS011;38162;45.926;13.608;2023-07-20T05:32:28;9.98;;;2.60;;
52188;SDS011;38162;45.926;13.608;2023-07-20T05:34:53;8.02;;;2.70;;
52188;SDS011;38162;45.926;13.608;2023-07-20T05:37:19;9.07;;;2.70;;
52188;SDS011;38162;45.926;13.608;2023-07-20T05:39:45;8.40;;;2.50;;
52188;SDS011;38162;45.926;13.608;2023-07-20T05:42:11;8.35;;;2.80;;
52188;SDS011;38162;45.926;13.608;2023-07-20T05:44:37;6.85;;;2.65;;
52188;SDS011;38162;45.926;13.608;2023-07-20T05:47:03;5.78;;;2.40;;
52188;SDS011;38162;45.926;13.608;2023-07-20T05:49:29;5.15;;;2.50;;
52188;SDS011;38162;45.926;13.608;2023-07-20T05:51:55;6.50;;;2.20;;
52188;SDS011;38162;45.926;13.608;2023-07-20T05:54:22;13.68;;;2.35;;
52188;SDS011;38162;45.926;13.608;2023-07-20T05:56:49;6.85;;;2.58;;
52188;SDS011;38162;45.926;13.608;2023-07-20T05:59:15;7.75;;;2.88;;
52188;SDS011;38162;45.926;13.608;2023-07-20T06:01:41;8.77;;;2.30;;
52188;SDS011;38162;45.926;13.608;2023-07-20T06:04:08;8.07;;;2.33;;
52188;SDS011;38162;45.926;13.608;2023-07-20T06:06:33;8.18;;;2.65;;
52188;SDS011;38162;45.926;13.608;2023-07-20T06:09:00;10.77;;;2.38;;
52188;SDS011;38162;45.926;13.608;2023-07-20T06:11:29;5.25;;;2.35;;
52188;SDS011;38162;45.926;13.608;2023-07-20T06:13:56;8.45;;;2.47;;
52188;SDS011;38162;45.926;13.608;2023-07-20T06:16:22;6.25;;;2.40;;
52188;SDS011;38162;45.926;13.608;2023-07-20T06:18:47;3.97;;;2.10;;
52188;SDS011;38162;45.926;13.608;2023-07-20T06:21:13;7.93;;;2.20;;
52188;SDS011;38162;45.926;13.608;2023-07-20T06:23:40;7.95;;;2.20;;
52188;SDS011;38162;45.926;13.608;2023-07-20T06:26:06;9.35;;;2.20;;
52188;SDS011;38162;45.926;13.608;2023-07-20T06:28:32;4.15;;;2.10;;
52188;SDS011;38162;45.926;13.608;2023-07-20T06:31:01;11.70;;;2.65;;
52188;SDS011;38162;45.926;13.608;2023-07-20T06:33:28;7.05;;;2.00;;
52188;SDS011;38162;45.926;13.608;2023-07-20T06:35:54;5.35;;;2.35;;
52188;SDS011;38162;45.926;13.608;2023-07-20T06:38:22;7.50;;;2.05;;
52188;SDS011;38162;45.926;13.608;2023-07-20T06:40:48;9.35;;;2.42;;
52188;SDS011;38162;45.926;13.608;2023-07-20T06:43:15;3.95;;;1.63;;
52188;SDS011;38162;45.926;13.608;2023-07-20T06:45:41;5.82;;;2.00;;
52188;SDS011;38162;45.926;13.608;2023-07-20T06:48:07;4.85;;;1.67;;
52188;SDS011;38162;45.926;13.608;2023-07-20T06:50:33;6.18;;;1.70;;
52188;SDS011;38162;45.926;13.608;2023-07-20T06:52:59;4.50;;;1.70;;
52188;SDS011;38162;45.926;13.608;2023-07-20T06:55:25;9.13;;;2.88;;
52188;SDS011;38162;45.926;13.608;2023-07-20T06:57:51;3.35;;;1.45;;
52188;SDS011;38162;45.926;13.608;2023-07-20T07:00:17;6.53;;;1.85;;
52188;SDS011;38162;45.926;13.608;2023-07-20T07:02:43;8.80;;;2.10;;
52188;SDS011;38162;45.926;13.608;2023-07-20T07:05:09;7.93;;;1.60;;
52188;SDS011;38162;45.926;13.608;2023-07-20T07:07:34;4.35;;;1.67;;
52188;SDS011;38162;45.926;13.608;2023-07-20T07:10:01;5.72;;;1.73;;
52188;SDS011;38162;45.926;13.608;2023-07-20T07:12:29;8.20;;;1.92;;
52188;SDS011;38162;45.926;13.608;2023-07-20T07:14:55;3.22;;;1.48;;
52188;SDS011;38162;45.926;13.608;2023-07-20T07:17:21;7.72;;;1.80;;
52188;SDS011;38162;45.926;13.608;2023-07-20T07:19:47;6.57;;;1.70;;
52188;SDS011;38162;45.926;13.608;2023-07-20T07:22:13;3.95;;;1.52;;
52188;SDS011;38162;45.926;13.608;2023-07-20T07:24:39;5.47;;;1.75;;
52188;SDS011;38162;45.926;13.608;2023-07-20T07:27:08;2.53;;;1.40;;
52188;SDS011;38162;45.926;13.608;2023-07-20T07:29:34;5.72;;;1.60;;
52188;SDS011;38162;45.926;13.608;2023-07-20T07:32:00;4.32;;;1.42;;
52188;SDS011;38162;45.926;13.608;2023-07-20T07:34:26;3.80;;;1.30;;
52188;SDS011;38162;45.926;13.608;2023-07-20T07:36:52;2.92;;;1.35;;
52188;SDS011;38162;45.926;13.608;2023-07-20T07:39:18;6.93;;;1.33;;
52188;SDS011;38162;45.926;13.608;2023-07-20T07:41:44;3.63;;;1.30;;
52188;SDS011;38162;45.926;13.608;2023-07-20T07:44:10;3.25;;;1.40;;
52188;SDS011;38162;45.926;13.608;2023-07-20T07:46:36;5.45;;;1.63;;
52188;SDS011;38162;45.926;13.608;2023-07-20T07:49:02;4.63;;;1.60;;
52188;SDS011;38162;45.926;13.608;2023-07-20T07:51:29;7.88;;;2.05;;
52188;SDS011;38162;45.926;13.608;2023-07-20T07:53:54;2.95;;;1.40;;
52188;SDS011;38162;45.926;13.608;2023-07-20T07:56:20;5.60;;;1.70;;
52188;SDS011;38162;45.926;13.608;2023-07-20T07:58:49;4.18;;;1.50;;
52188;SDS011;38162;45.926;13.608;2023-07-20T08:01:16;2.50;;;1.45;;
52188;SDS011;38162;45.926;13.608;2023-07-20T08:03:44;2.97;;;1.63;;
52188;SDS011;38162;45.926;13.608;2023-07-20T08:06:12;3.47;;;1.90;;
52188;SDS011;38162;45.926;13.608;2023-07-20T08:08:38;5.50;;;1.58;;
52188;SDS011;38162;45.926;13.608;2023-07-20T08:11:04;6.00;;;1.75;;
52188;SDS011;38162;45.926;13.608;2023-07-20T08:13:30;6.25;;;1.70;;
52188;SDS011;38162;45.926;13.608;2023-07-20T08:15:57;8.45;;;1.52;;
52188;SDS011;38162;45.926;13.608;2023-07-20T08:18:23;7.82;;;1.85;;
52188;SDS011;38162;45.926;13.608;2023-07-20T08:20:49;3.55;;;1.90;;
52188;SDS011;38162;45.926;13.608;2023-07-20T08:23:15;7.57;;;1.67;;
52188;SDS011;38162;45.926;13.608;2023-07-20T08:25:41;5.50;;;1.60;;
52188;SDS011;38162;45.926;13.608;2023-07-20T08:28:10;4.70;;;1.50;;
52188;SDS011;38162;45.926;13.608;2023-07-20T08:30:44;4.93;;;1.33;;
52188;SDS011;38162;45.926;13.608;2023-07-20T08:33:12;3.45;;;1.42;;
52188;SDS011;38162;45.926;13.608;2023-07-20T08:35:39;7.72;;;1.77;;
52188;SDS011;38162;45.926;13.608;2023-07-20T08:38:05;4.25;;;1.52;;
52188;SDS011;38162;45.926;13.608;2023-07-20T08:40:32;4.97;;;2.13;;
52188;SDS011;38162;45.926;13.608;2023-07-20T08:42:59;6.82;;;1.85;;
52188;SDS011;38162;45.926;13.608;2023-07-20T08:45:26;6.68;;;2.58;;
52188;SDS011;38162;45.926;13.608;2023-07-20T08:47:57;4.43;;;1.75;;
52188;SDS011;38162;45.926;13.608;2023-07-20T08:50:25;4.13;;;1.95;;
52188;SDS011;38162;45.926;13.608;2023-07-20T08:52:52;5.88;;;2.00;;
52188;SDS011;38162;45.926;13.608;2023-07-20T08:55:19;3.92;;;2.20;;
52188;SDS011;38162;45.926;13.608;2023-07-20T08:57:47;6.82;;;2.30;;
52188;SDS011;38162;45.926;13.608;2023-07-20T09:00:15;4.97;;;1.90;;
52188;SDS011;38162;45.926;13.608;2023-07-20T09:02:45;2.95;;;2.15;;
52188;SDS011;38162;45.926;13.608;2023-07-20T09:05:12;3.42;;;1.80;;
52188;SDS011;38162;45.926;13.608;2023-07-20T09:07:39;3.83;;;1.95;;
52188;SDS011;38162;45.926;13.608;2023-07-20T09:10:06;4.30;;;2.00;;
52188;SDS011;38162;45.926;13.608;2023-07-20T09:12:35;4.97;;;2.47;;
52188;SDS011;38162;45.926;13.608;2023-07-20T09:15:02;4.18;;;2.20;;
52188;SDS011;38162;45.926;13.608;2023-07-20T09:17:28;7.80;;;2.05;;
52188;SDS011;38162;45.926;13.608;2023-07-20T09:19:54;7.03;;;2.22;;
52188;SDS011;38162;45.926;13.608;2023-07-20T09:22:20;4.45;;;2.30;;
52188;SDS011;38162;45.926;13.608;2023-07-20T09:24:46;5.22;;;2.30;;
52188;SDS011;38162;45.926;13.608;2023-07-20T09:27:11;4.05;;;2.08;;
52188;SDS011;38162;45.926;13.608;2023-07-20T09:29:49;5.28;;;2.13;;
52188;SDS011;38162;45.926;13.608;2023-07-20T09:32:19;6.97;;;2.50;;
52188;SDS011;38162;45.926;13.608;2023-07-20T09:34:46;5.03;;;2.30;;
52188;SDS011;38162;45.926;13.608;2023-07-20T09:37:15;5.85;;;2.00;;
52188;SDS011;38162;45.926;13.608;2023-07-20T09:39:48;4.60;;;2.50;;
52188;SDS011;38162;45.926;13.608;2023-07-20T09:42:17;4.82;;;2.35;;
52188;SDS011;38162;45.926;13.608;2023-07-20T09:44:43;4.20;;;2.38;;
52188;SDS011;38162;45.926;13.608;2023-07-20T09:47:09;5.97;;;2.50;;
52188;SDS011;38162;45.926;13.608;2023-07-20T09:49:39;5.68;;;2.15;;
52188;SDS011;38162;45.926;13.608;2023-07-20T09:52:06;6.28;;;2.30;;
52188;SDS011;38162;45.926;13.608;2023-07-20T09:54:39;8.00;;;2.25;;
52188;SDS011;38162;45.926;13.608;2023-07-20T09:57:08;8.95;;;2.60;;
52188;SDS011;38162;45.926;13.608;2023-07-20T09:59:37;4.07;;;2.15;;
52188;SDS011;38162;45.926;13.608;2023-07-20T10:02:04;5.65;;;2.70;;
52188;SDS011;38162;45.926;13.608;2023-07-20T10:04:38;4.85;;;2.28;;
52188;SDS011;38162;45.926;13.608;2023-07-20T10:07:05;3.42;;;2.58;;
52188;SDS011;38162;45.926;13.608;2023-07-20T10:09:36;6.30;;;2.83;;
52188;SDS011;38162;45.926;13.608;2023-07-20T10:12:04;5.57;;;2.35;;
52188;SDS011;38162;45.926;13.608;2023-07-20T10:14:32;7.53;;;2.42;;
52188;SDS011;38162;45.926;13.608;2023-07-20T10:17:04;6.70;;;2.70;;
52188;SDS011;38162;45.926;13.608;2023-07-20T10:22:07;5.85;;;2.80;;
52188;SDS011;38162;45.926;13.608;2023-07-20T10:24:39;4.07;;;2.75;;
52188;SDS011;38162;45.926;13.608;2023-07-20T10:27:06;5.85;;;2.90;;
52188;SDS011;38162;45.926;13.608;2023-07-20T10:29:32;7.68;;;2.95;;
52188;SDS011;38162;45.926;13.608;2023-07-20T10:31:59;4.63;;;2.88;;
52188;SDS011;38162;45.926;13.608;2023-07-20T10:34:25;6.47;;;2.80;;
52188;SDS011;38162;45.926;13.608;2023-07-20T10:36:51;6.80;;;2.67;;
52188;SDS011;38162;45.926;13.608;2023-07-20T10:39:24;4.70;;;2.67;;
52188;SDS011;38162;45.926;13.608;2023-07-20T10:41:59;5.72;;;2.70;;
52188;SDS011;38162;45.926;13.608;2023-07-20T10:44:32;7.30;;;3.03;;
52188;SDS011;38162;45.926;13.608;2023-07-20T10:47:01;6.18;;;3.17;;
52188;SDS011;38162;45.926;13.608;2023-07-20T10:49:32;5.38;;;2.63;;
52188;SDS011;38162;45.926;13.608;2023-07-20T10:52:00;5.10;;;2.60;;
52188;SDS011;38162;45.926;13.608;2023-07-20T10:57:21;4.15;;;2.42;;
52188;SDS011;38162;45.926;13.608;2023-07-20T11:00:13;5.70;;;2.70;;
52188;SDS011;38162;45.926;13.608;2023-07-20T11:02:43;4.13;;;2.70;;
52188;SDS011;38162;45.926;13.608;2023-07-20T11:05:34;8.57;;;2.63;;
52188;SDS011;38162;45.926;13.608;2023-07-20T11:08:03;5.32;;;2.72;;
52188;SDS011;38162;45.926;13.608;2023-07-20T11:10:36;6.22;;;2.70;;
52188;SDS011;38162;45.926;13.608;2023-07-20T11:13:18;7.40;;;2.70;;
52188;SDS011;38162;45.926;13.608;2023-07-20T11:18:13;7.18;;;2.78;;
52188;SDS011;38162;45.926;13.608;2023-07-20T11:20:40;8.27;;;3.13;;
52188;SDS011;38162;45.926;13.608;2023-07-20T11:23:06;9.88;;;4.50;;
52188;SDS011;38162;45.926;13.608;2023-07-20T11:25:36;5.47;;;3.10;;
52188;SDS011;38162;45.926;13.608;2023-07-20T11:28:08;6.40;;;2.45;;
52188;SDS011;38162;45.926;13.608;2023-07-20T11:30:36;6.32;;;2.55;;
52188;SDS011;38162;45.926;13.608;2023-07-20T11:33:03;5.15;;;2.60;;
52188;SDS011;38162;45.926;13.608;2023-07-20T11:35:30;9.27;;;2.88;;
52188;SDS011;38162;45.926;13.608;2023-07-20T11:37:56;14.15;;;5.00;;
52188;SDS011;38162;45.926;13.608;2023-07-20T11:40:22;8.13;;;3.05;;
52188;SDS011;38162;45.926;13.608;2023-07-20T11:42:49;4.13;;;2.72;;
52188;SDS011;38162;45.926;13.608;2023-07-20T11:45:16;6.28;;;3.50;;
52188;SDS011;38162;45.926;13.608;2023-07-20T11:47:43;9.55;;;3.25;;
52188;SDS011;38162;45.926;13.608;2023-07-20T11:50:09;5.00;;;2.33;;
52188;SDS011;38162;45.926;13.608;2023-07-20T11:52:36;5.10;;;2.70;;
52188;SDS011;38162;45.926;13.608;2023-07-20T11:55:02;6.53;;;2.40;;
52188;SDS011;38162;45.926;13.608;2023-07-20T11:57:29;7.22;;;2.53;;
52188;SDS011;38162;45.926;13.608;2023-07-20T11:59:55;4.57;;;2.70;;
52188;SDS011;38162;45.926;13.608;2023-07-20T12:02:29;4.82;;;2.40;;
52188;SDS011;38162;45.926;13.608;2023-07-20T12:04:55;6.43;;;2.70;;
52188;SDS011;38162;45.926;13.608;2023-07-20T12:07:22;6.70;;;2.67;;
52188;SDS011;38162;45.926;13.608;2023-07-20T12:12:43;4.38;;;2.40;;
52188;SDS011;38162;45.926;13.608;2023-07-20T12:17:42;9.05;;;2.53;;
52188;SDS011;38162;45.926;13.608;2023-07-20T12:20:09;6.75;;;2.55;;
52188;SDS011;38162;45.926;13.608;2023-07-20T12:22:43;5.20;;;2.45;;
52188;SDS011;38162;45.926;13.608;2023-07-20T12:25:09;7.75;;;2.50;;
52188;SDS011;38162;45.926;13.608;2023-07-20T12:27:36;7.68;;;2.60;;
52188;SDS011;38162;45.926;13.608;2023-07-20T12:30:03;4.20;;;2.40;;
52188;SDS011;38162;45.926;13.608;2023-07-20T12:32:30;4.47;;;2.50;;
52188;SDS011;38162;45.926;13.608;2023-07-20T12:34:56;6.53;;;2.72;;
52188;SDS011;38162;45.926;13.608;2023-07-20T12:37:22;5.60;;;2.40;;
52188;SDS011;38162;45.926;13.608;2023-07-20T12:39:48;6.00;;;2.80;;
52188;SDS011;38162;45.926;13.608;2023-07-20T12:42:14;5.32;;;2.38;;
52188;SDS011;38162;45.926;13.608;2023-07-20T12:44:41;4.65;;;2.00;;
52188;SDS011;38162;45.926;13.608;2023-07-20T12:47:07;8.15;;;2.05;;
52188;SDS011;38162;45.926;13.608;2023-07-20T12:49:33;7.30;;;2.78;;
52188;SDS011;38162;45.926;13.608;2023-07-20T12:51:58;6.30;;;2.53;;
52188;SDS011;38162;45.926;13.608;2023-07-20T12:54:24;7.65;;;2.50;;
52188;SDS011;38162;45.926;13.608;2023-07-20T12:56:50;7.22;;;2.55;;
52188;SDS011;38162;45.926;13.608;2023-07-20T12:59:16;5.03;;;2.42;;
52188;SDS011;38162;45.926;13.608;2023-07-20T13:01:41;5.00;;;2.50;;
52188;SDS011;38162;45.926;13.608;2023-07-20T13:04:08;4.95;;;2.65;;
52188;SDS011;38162;45.926;13.608;2023-07-20T13:06:35;7.80;;;2.40;;
52188;SDS011;38162;45.926;13.608;2023-07-20T13:09:01;8.45;;;2.47;;
52188;SDS011;38162;45.926;13.608;2023-07-20T13:11:27;10.50;;;2.70;;
52188;SDS011;38162;45.926;13.608;2023-07-20T13:13:53;8.55;;;2.75;;
52188;SDS011;38162;45.926;13.608;2023-07-20T13:16:18;8.40;;;3.15;;
52188;SDS011;38162;45.926;13.608;2023-07-20T13:18:44;6.78;;;2.78;;
52188;SDS011;38162;45.926;13.608;2023-07-20T13:21:10;9.05;;;2.38;;
52188;SDS011;38162;45.926;13.608;2023-07-20T13:23:36;6.85;;;2.15;;
52188;SDS011;38162;45.926;13.608;2023-07-20T13:26:04;8.20;;;2.70;;
52188;SDS011;38162;45.926;13.608;2023-07-20T13:28:30;6.25;;;2.60;;
52188;SDS011;38162;45.926;13.608;2023-07-20T13:30:56;7.03;;;2.67;;
52188;SDS011;38162;45.926;13.608;2023-07-20T13:33:21;6.45;;;2.63;;
52188;SDS011;38162;45.926;13.608;2023-07-20T13:35:47;11.02;;;3.35;;
52188;SDS011;38162;45.926;13.608;2023-07-20T13:38:13;9.55;;;2.75;;
52188;SDS011;38162;45.926;13.608;2023-07-20T13:40:39;6.05;;;2.20;;
52188;SDS011;38162;45.926;13.608;2023-07-20T13:43:05;6.63;;;2.70;;
52188;SDS011;38162;45.926;13.608;2023-07-20T13:45:30;13.68;;;3.17;;
52188;SDS011;38162;45.926;13.608;2023-07-20T13:47:56;12.10;;;2.83;;
52188;SDS011;38162;45.926;13.608;2023-07-20T13:50:22;5.18;;;2.10;;
52188;SDS011;38162;45.926;13.608;2023-07-20T13:52:48;5.47;;;2.13;;
52188;SDS011;38162;45.926;13.608;2023-07-20T13:55:13;6.63;;;2.10;;
52188;SDS011;38162;45.926;13.608;2023-07-20T13:57:39;6.20;;;2.33;;
52188;SDS011;38162;45.926;13.608;2023-07-20T14:00:05;5.43;;;2.75;;
52188;SDS011;38162;45.926;13.608;2023-07-20T14:02:36;6.07;;;2.30;;
52188;SDS011;38162;45.926;13.608;2023-07-20T14:05:02;5.97;;;2.20;;
52188;SDS011;38162;45.926;13.608;2023-07-20T14:07:28;7.70;;;2.30;;
52188;SDS011;38162;45.926;13.608;2023-07-20T14:09:53;8.40;;;2.35;;
52188;SDS011;38162;45.926;13.608;2023-07-20T14:12:20;9.05;;;2.17;;
52188;SDS011;38162;45.926;13.608;2023-07-20T14:14:45;7.80;;;2.40;;
52188;SDS011;38162;45.926;13.608;2023-07-20T14:17:11;7.30;;;2.60;;
52188;SDS011;38162;45.926;13.608;2023-07-20T14:19:37;7.95;;;2.22;;
52188;SDS011;38162;45.926;13.608;2023-07-20T14:22:03;9.25;;;2.63;;
52188;SDS011;38162;45.926;13.608;2023-07-20T14:24:29;5.82;;;2.10;;
52188;SDS011;38162;45.926;13.608;2023-07-20T14:26:55;7.68;;;2.30;;
52188;SDS011;38162;45.926;13.608;2023-07-20T14:29:21;5.65;;;2.22;;
52188;SDS011;38162;45.926;13.608;2023-07-20T14:31:47;6.75;;;2.63;;
52188;SDS011;38162;45.926;13.608;2023-07-20T14:34:17;8.40;;;2.60;;
52188;SDS011;38162;45.926;13.608;2023-07-20T14:36:44;11.70;;;2.60;;
52188;SDS011;38162;45.926;13.608;2023-07-20T14:39:10;7.97;;;2.75;;
52188;SDS011;38162;45.926;13.608;2023-07-20T14:41:36;8.50;;;2.70;;
52188;SDS011;38162;45.926;13.608;2023-07-20T14:44:02;10.05;;;2.45;;
52188;SDS011;38162;45.926;13.608;2023-07-20T14:46:28;7.68;;;2.47;;
52188;SDS011;38162;45.926;13.608;2023-07-20T14:48:54;10.38;;;2.58;;
52188;SDS011;38162;45.926;13.608;2023-07-20T14:51:20;7.60;;;2.70;;
52188;SDS011;38162;45.926;13.608;2023-07-20T14:53:46;8.23;;;2.50;;
52188;SDS011;38162;45.926;13.608;2023-07-20T14:56:12;9.40;;;2.70;;
52188;SDS011;38162;45.926;13.608;2023-07-20T14:58:37;9.38;;;3.08;;